createdAt,value
2022-12-15T00:00:20.832Z,-2.50
2022-12-15T00:03:06.338Z,-2.60
2022-12-15T00:05:52.083Z,-2.50
2022-12-15T00:08:37.642Z,-2.60
2022-12-15T00:11:23.432Z,-2.60
2022-12-15T00:14:08.848Z,-2.50
2022-12-15T00:16:55.863Z,-2.60
2022-12-15T00:19:41.252Z,-2.60
2022-12-15T00:22:26.762Z,-2.60
2022-12-15T00:25:12.285Z,-2.60
2022-12-15T00:27:57.592Z,-2.60
2022-12-15T00:30:43.141Z,-2.60
2022-12-15T00:33:31.241Z,-2.60
2022-12-15T00:36:17.532Z,-2.60
2022-12-15T00:38:46.150Z,-2.60
2022-12-15T00:41:16.406Z,-2.70
2022-12-15T00:43:44.782Z,-2.70
2022-12-15T00:46:31.353Z,-2.70
2022-12-15T00:49:01.642Z,-2.80
2022-12-15T00:51:47.137Z,-2.80
2022-12-15T00:54:32.895Z,-2.70
2022-12-15T00:57:18.379Z,-2.80
2022-12-15T01:00:03.828Z,-2.80
2022-12-15T01:02:49.713Z,-2.70
2022-12-15T01:05:36.746Z,-2.70
2022-12-15T01:08:22.108Z,-2.70
2022-12-15T01:11:07.571Z,-2.70
2022-12-15T01:13:53.009Z,-2.80
2022-12-15T01:16:38.448Z,-2.80
2022-12-15T01:19:26.637Z,-2.80
2022-12-15T01:21:56.125Z,-2.80
2022-12-15T01:24:24.375Z,-2.80
2022-12-15T01:26:52.667Z,-2.80
2022-12-15T01:29:20.699Z,-2.80
2022-12-15T01:31:49.683Z,-2.80
2022-12-15T01:34:19.955Z,-2.80
2022-12-15T01:36:48.135Z,-2.80
2022-12-15T01:39:17.489Z,-2.80
2022-12-15T01:41:44.603Z,-2.80
2022-12-15T01:44:18.127Z,-2.80
2022-12-15T01:46:46.869Z,-2.80
2022-12-15T01:49:18.776Z,-2.80
2022-12-15T01:51:50.768Z,-2.80
2022-12-15T01:54:24.252Z,-2.90
2022-12-15T01:56:54.714Z,-2.90
2022-12-15T01:59:28.003Z,-2.90
2022-12-15T02:01:56.104Z,-2.80
2022-12-15T02:04:25.355Z,-2.90
2022-12-15T02:06:53.584Z,-2.90
2022-12-15T02:09:26.582Z,-2.90
2022-12-15T02:12:01.907Z,-2.90
2022-12-15T02:14:47.010Z,-2.90
2022-12-15T02:17:23.285Z,-2.90
2022-12-15T02:20:36.101Z,-3.00
2022-12-15T02:23:36.956Z,-3.10
2022-12-15T02:26:37.945Z,-3.20
2022-12-15T02:29:18.123Z,-3.20
2022-12-15T02:31:53.886Z,-3.20
2022-12-15T02:34:28.113Z,-3.20
2022-12-15T02:37:00.378Z,-3.30
2022-12-15T02:39:28.523Z,-3.20
2022-12-15T02:41:56.556Z,-3.30
2022-12-15T02:44:31.756Z,-3.30
2022-12-15T02:47:13.322Z,-3.20
2022-12-15T02:49:53.542Z,-3.20
2022-12-15T02:52:34.560Z,-3.30
2022-12-15T02:55:13.413Z,-3.30
2022-12-15T02:57:48.869Z,-3.20
2022-12-15T03:00:18.738Z,-3.40
2022-12-15T03:02:51.849Z,-3.50
2022-12-15T03:05:22.059Z,-3.40
2022-12-15T03:07:51.361Z,-3.50
2022-12-15T03:10:20.991Z,-3.50
2022-12-15T03:12:49.761Z,-3.40
2022-12-15T03:15:18.437Z,-3.40
2022-12-15T03:17:47.872Z,-3.40
2022-12-15T03:20:16.176Z,-3.40
2022-12-15T03:22:44.591Z,-3.40
2022-12-15T03:25:12.653Z,-3.40
2022-12-15T03:27:40.687Z,-3.40
2022-12-15T03:30:09.779Z,-3.40
2022-12-15T03:32:37.928Z,-3.40
2022-12-15T03:35:08.645Z,-3.40
2022-12-15T03:37:36.709Z,-3.40
2022-12-15T03:40:05.354Z,-3.40
2022-12-15T03:42:51.509Z,-3.50
2022-12-15T03:45:21.389Z,-3.50
2022-12-15T03:47:50.230Z,-3.50
2022-12-15T03:50:21.895Z,-3.50
2022-12-15T03:52:52.121Z,-3.50
2022-12-15T03:55:20.579Z,-3.50
2022-12-15T03:57:48.711Z,-3.60
2022-12-15T04:00:18.549Z,-3.60
2022-12-15T04:02:47.617Z,-3.60
2022-12-15T04:05:22.963Z,-3.60
2022-12-15T04:07:51.012Z,-3.60
2022-12-15T04:10:19.321Z,-3.60
2022-12-15T04:12:47.361Z,-3.70
2022-12-15T04:15:15.898Z,-3.70
2022-12-15T04:17:44.013Z,-3.70
2022-12-15T04:20:11.703Z,-3.70
2022-12-15T04:22:43.113Z,-3.80
2022-12-15T04:25:31.112Z,-3.70
2022-12-15T04:28:17.022Z,-3.70
2022-12-15T04:31:07.156Z,-3.80
2022-12-15T04:33:53.806Z,-3.90
2022-12-15T04:36:39.663Z,-3.80
2022-12-15T04:39:26.457Z,-3.90
2022-12-15T04:42:13.919Z,-3.90
2022-12-15T04:44:59.233Z,-3.90
2022-12-15T04:47:44.893Z,-3.80
2022-12-15T04:50:30.360Z,-3.90
2022-12-15T04:53:26.326Z,-3.90
2022-12-15T04:56:18.205Z,-4.00
2022-12-15T04:59:04.424Z,-4.00
2022-12-15T05:01:50.123Z,-4.10
2022-12-15T05:04:35.770Z,-4.20
2022-12-15T05:07:21.286Z,-4.30
2022-12-15T05:10:12.722Z,-4.30
2022-12-15T05:13:02.052Z,-4.20
2022-12-15T05:15:47.719Z,-4.30
2022-12-15T05:18:33.156Z,-4.30
2022-12-15T05:21:18.524Z,-4.40
2022-12-15T05:24:03.989Z,-4.50
2022-12-15T05:26:52.873Z,-4.50
2022-12-15T05:29:40.621Z,-4.50
2022-12-15T05:32:09.056Z,-4.50
2022-12-15T05:34:38.180Z,-4.50
2022-12-15T05:37:07.009Z,-4.50
2022-12-15T05:39:35.531Z,-4.50
2022-12-15T05:42:03.875Z,-4.50
2022-12-15T05:44:33.460Z,-4.50
2022-12-15T05:47:01.452Z,-4.50
2022-12-15T05:49:29.538Z,-4.50
2022-12-15T05:51:58.037Z,-4.50
2022-12-15T05:54:26.132Z,-4.50
2022-12-15T05:56:54.126Z,-4.50
2022-12-15T05:59:22.292Z,-4.60
2022-12-15T06:01:51.746Z,-4.70
2022-12-15T06:04:19.932Z,-4.80
2022-12-15T06:06:48.364Z,-4.70
2022-12-15T06:09:16.437Z,-4.70
2022-12-15T06:11:44.916Z,-4.80
2022-12-15T06:14:13.001Z,-4.70
2022-12-15T06:16:50.153Z,-4.10
2022-12-15T06:19:21.177Z,-4.80
2022-12-15T06:21:49.348Z,-4.80
2022-12-15T06:24:18.018Z,-4.80
2022-12-15T06:26:46.441Z,-4.80
2022-12-15T06:29:18.356Z,-4.70
2022-12-15T06:31:46.480Z,-4.70
2022-12-15T06:34:16.876Z,-4.60
2022-12-15T06:36:46.284Z,-4.60
2022-12-15T06:39:16.060Z,-4.60
2022-12-15T06:41:45.262Z,-4.60
2022-12-15T06:44:17.220Z,-4.70
2022-12-15T06:46:46.048Z,-4.70
2022-12-15T06:49:14.506Z,-4.70
2022-12-15T06:51:43.919Z,-4.80
2022-12-15T06:54:13.446Z,-4.70
2022-12-15T06:56:42.275Z,-4.50
2022-12-15T06:59:12.764Z,-4.70
2022-12-15T07:01:41.630Z,-4.60
2022-12-15T07:04:11.193Z,-4.70
2022-12-15T07:06:40.495Z,-4.70
2022-12-15T07:09:12.583Z,-4.70
2022-12-15T07:11:42.246Z,-4.80
2022-12-15T07:14:11.290Z,-4.80
2022-12-15T07:16:40.930Z,-4.80
2022-12-15T07:19:12.697Z,-4.80
2022-12-15T07:21:41.154Z,-4.80
2022-12-15T07:24:11.184Z,-4.90
2022-12-15T07:26:39.297Z,-4.80
2022-12-15T07:29:08.678Z,-5.00
2022-12-15T07:31:36.792Z,-4.90
2022-12-15T07:34:04.967Z,-4.90
2022-12-15T07:36:33.114Z,-4.90
2022-12-15T07:39:02.303Z,-4.90
2022-12-15T07:41:30.758Z,-5.00
2022-12-15T07:43:59.686Z,-5.00
2022-12-15T07:46:29.360Z,-5.10
2022-12-15T07:48:57.474Z,-5.20
2022-12-15T07:51:25.680Z,-5.20
2022-12-15T07:53:53.690Z,-5.20
2022-12-15T07:56:22.023Z,-5.10
2022-12-15T07:58:50.155Z,-5.10
2022-12-15T08:01:18.577Z,-5.00
2022-12-15T08:03:49.941Z,-5.00
2022-12-15T08:06:18.236Z,-5.00
2022-12-15T08:08:50.501Z,-5.00
2022-12-15T08:11:21.665Z,-5.00
2022-12-15T08:14:11.813Z,-5.00
2022-12-15T08:16:39.111Z,-4.80
2022-12-15T08:19:11.886Z,-4.70
2022-12-15T08:21:41.031Z,-4.70
2022-12-15T08:24:09.349Z,-4.70
2022-12-15T08:26:38.848Z,-4.60
2022-12-15T08:31:57.206Z,-4.60
2022-12-15T08:34:26.739Z,-4.60
2022-12-15T08:36:55.505Z,-4.60
2022-12-15T08:39:23.657Z,-4.70
2022-12-15T08:41:51.789Z,-4.70
2022-12-15T08:44:19.893Z,-4.70
2022-12-15T08:46:47.956Z,-4.80
2022-12-15T08:49:21.485Z,-4.80
2022-12-15T08:51:52.300Z,-4.80
2022-12-15T08:54:21.482Z,-4.80
2022-12-15T08:56:50.073Z,-4.70
2022-12-15T08:59:19.009Z,-4.60
2022-12-15T09:01:47.408Z,-4.50
2022-12-15T09:04:16.066Z,-4.40
2022-12-15T09:06:44.625Z,-4.40
2022-12-15T09:09:20.559Z,-4.30
2022-12-15T09:11:48.837Z,-4.20
2022-12-15T09:14:17.874Z,-4.20
2022-12-15T09:16:46.053Z,-4.20
2022-12-15T09:19:19.122Z,-4.30
2022-12-15T09:21:48.118Z,-4.30
2022-12-15T09:24:25.872Z,-4.30
2022-12-15T09:26:58.464Z,-4.40
2022-12-15T09:29:26.627Z,-4.40
2022-12-15T09:31:55.088Z,-4.50
2022-12-15T09:34:23.117Z,-4.50
2022-12-15T09:36:51.387Z,-4.50
2022-12-15T09:39:19.460Z,-4.50
2022-12-15T09:41:53.726Z,-4.50
2022-12-15T09:44:24.987Z,-4.60
2022-12-15T09:47:05.643Z,-4.60
2022-12-15T09:49:44.565Z,-4.70
2022-12-15T09:52:14.828Z,-4.80
2022-12-15T09:54:45.061Z,-4.90
2022-12-15T09:57:21.557Z,-4.90
2022-12-15T10:00:08.248Z,-4.90
2022-12-15T10:03:11.290Z,-4.80
2022-12-15T10:06:14.367Z,-4.80
2022-12-15T10:08:40.794Z,-4.80
2022-12-15T10:11:19.606Z,-4.80
2022-12-15T10:13:53.545Z,-4.80
2022-12-15T10:16:31.624Z,-4.80
2022-12-15T10:19:08.673Z,-4.90
2022-12-15T10:21:37.514Z,-4.90
2022-12-15T10:24:31.614Z,-4.90
2022-12-15T10:27:17.255Z,-4.90
2022-12-15T10:29:50.761Z,-5.00
2022-12-15T10:32:26.523Z,-5.00
2022-12-15T10:34:54.606Z,-4.90
2022-12-15T10:37:24.193Z,-4.90
2022-12-15T10:39:52.573Z,-4.80
2022-12-15T10:42:22.971Z,-4.80
2022-12-15T10:44:53.957Z,-4.80
2022-12-15T10:47:26.849Z,-4.80
2022-12-15T10:49:56.216Z,-4.80
2022-12-15T10:52:28.360Z,-4.80
2022-12-15T10:54:56.892Z,-4.70
2022-12-15T10:57:28.721Z,-4.70
2022-12-15T11:00:03.976Z,-4.60
2022-12-15T11:02:36.641Z,-4.20
2022-12-15T11:05:07.386Z,-4.50
2022-12-15T11:07:39.405Z,-4.50
2022-12-15T11:10:18.125Z,-4.40
2022-12-15T11:12:58.241Z,-4.30
2022-12-15T11:15:50.480Z,-4.30
2022-12-15T11:18:33.455Z,-4.20
2022-12-15T11:21:05.400Z,-4.20
2022-12-15T11:23:50.717Z,-4.10
2022-12-15T11:26:31.809Z,-4.10
2022-12-15T11:29:02.592Z,-4.10
2022-12-15T11:31:36.025Z,-4.10
2022-12-15T11:34:11.799Z,-4.10
2022-12-15T11:37:09.187Z,-4.10
2022-12-15T11:39:54.209Z,-4.00
2022-12-15T11:42:31.162Z,-4.00
2022-12-15T11:45:06.578Z,-3.90
2022-12-15T11:47:44.705Z,-3.70
2022-12-15T11:50:27.725Z,-3.60
2022-12-15T11:53:11.030Z,-3.60
2022-12-15T11:55:48.422Z,-3.50
2022-12-15T11:58:45.057Z,-3.40
2022-12-15T12:01:33.476Z,-3.10
2022-12-15T12:04:09.059Z,-2.70
2022-12-15T12:06:46.738Z,-2.30
2022-12-15T12:09:27.342Z,-2.20
2022-12-15T12:12:02.639Z,-2.10
2022-12-15T12:14:41.696Z,-2.10
2022-12-15T12:17:14.858Z,-2.00
2022-12-15T12:19:50.823Z,-2.10
2022-12-15T12:22:26.964Z,-2.10
2022-12-15T12:25:01.525Z,-2.20
2022-12-15T12:27:37.372Z,-2.00
2022-12-15T12:30:12.585Z,-1.80
2022-12-15T12:32:48.313Z,-1.60
2022-12-15T12:35:30.423Z,-1.50
2022-12-15T12:38:05.169Z,-1.50
2022-12-15T12:40:45.425Z,-1.60
2022-12-15T12:43:23.634Z,-1.80
2022-12-15T12:45:56.315Z,-1.90
2022-12-15T12:48:31.889Z,-2.00
2022-12-15T12:51:14.143Z,-2.00
2022-12-15T12:53:43.565Z,-2.10
2022-12-15T12:56:30.089Z,-2.20
2022-12-15T12:58:58.366Z,-2.30
2022-12-15T13:01:31.884Z,-2.30
2022-12-15T13:04:08.405Z,-2.30
2022-12-15T13:07:00.945Z,-2.20
2022-12-15T13:09:41.955Z,-2.20
2022-12-15T13:12:52.563Z,-2.20
2022-12-15T13:15:37.251Z,-2.20
2022-12-15T13:18:14.824Z,-2.20
2022-12-15T13:20:43.809Z,-2.30
2022-12-15T13:23:36.391Z,-2.40
2022-12-15T13:26:19.229Z,-2.40
2022-12-15T13:28:52.405Z,-2.50
2022-12-15T13:31:41.803Z,-2.50
2022-12-15T13:34:16.907Z,-2.50
2022-12-15T13:36:55.037Z,-2.50
2022-12-15T13:39:57.276Z,-2.50
2022-12-15T13:42:52.960Z,-2.60
2022-12-15T13:48:40.387Z,-2.40
2022-12-15T13:51:24.958Z,-2.40
2022-12-15T13:56:53.721Z,-2.00
2022-12-15T13:59:30.417Z,-1.60
2022-12-15T14:01:58.757Z,-1.40
2022-12-15T14:04:27.908Z,-1.00
2022-12-15T14:06:58.807Z,-0.90
2022-12-15T14:09:31.224Z,-1.00
2022-12-15T14:12:00.249Z,-1.00
2022-12-15T14:14:34.417Z,-1.30
2022-12-15T14:17:04.919Z,-1.60
2022-12-15T14:19:41.202Z,-1.90
2022-12-15T14:25:17.619Z,-2.40
2022-12-15T14:27:45.679Z,-2.60
2022-12-15T14:30:29.313Z,-2.80
2022-12-15T14:33:02.294Z,-2.90
2022-12-15T14:35:33.375Z,-3.00
2022-12-15T14:38:06.324Z,-3.10
2022-12-15T14:40:37.266Z,-3.10
2022-12-15T14:43:06.701Z,-3.20
2022-12-15T14:45:36.216Z,-3.30
2022-12-15T14:51:00.999Z,-3.40
2022-12-15T14:53:33.421Z,-3.50
2022-12-15T14:56:14.509Z,-3.50
2022-12-15T14:58:42.973Z,-3.50
2022-12-15T15:01:25.852Z,-3.60
2022-12-15T15:03:07.669Z,-2.20
2022-12-15T15:03:09.926Z,-2.50
2022-12-15T15:03:59.204Z,-3.70
2022-12-15T15:06:32.474Z,-3.70
2022-12-15T15:09:20.944Z,-3.80
2022-12-15T15:11:53.524Z,-3.90
2022-12-15T15:14:26.414Z,-4.00
2022-12-15T15:17:09.495Z,-4.00
2022-12-15T15:19:40.204Z,-4.10
2022-12-15T15:22:26.846Z,-4.20
2022-12-15T15:24:54.891Z,-4.30
2022-12-15T15:27:33.741Z,-4.40
2022-12-15T15:30:19.251Z,-4.50
2022-12-15T15:32:54.084Z,-4.60
2022-12-15T15:35:26.312Z,-4.70
2022-12-15T15:38:00.523Z,-4.80
2022-12-15T15:40:28.638Z,-4.90
2022-12-15T15:42:56.918Z,-4.90
2022-12-15T15:45:25.411Z,-5.00
2022-12-15T15:47:58.094Z,-5.10
2022-12-15T15:50:30.536Z,-5.20
2022-12-15T15:52:59.147Z,-5.20
2022-12-15T15:55:32.324Z,-5.30
2022-12-15T15:58:10.869Z,-5.40
2022-12-15T16:00:40.294Z,-5.50
2022-12-15T16:03:10.130Z,-5.50
2022-12-15T16:05:39.016Z,-5.50
2022-12-15T16:08:08.489Z,-5.60
2022-12-15T16:10:36.518Z,-5.70
2022-12-15T16:13:04.695Z,-5.70
2022-12-15T16:15:33.066Z,-5.80
2022-12-15T16:18:01.217Z,-5.80
2022-12-15T16:20:31.017Z,-5.90
2022-12-15T16:23:02.691Z,-5.90
2022-12-15T16:25:42.408Z,-5.90
2022-12-15T16:28:14.313Z,-6.00
2022-12-15T16:30:43.031Z,-6.10
2022-12-15T16:33:11.962Z,-6.10
2022-12-15T16:35:42.873Z,-6.20
2022-12-15T16:38:17.707Z,-6.20
2022-12-15T16:40:45.973Z,-6.30
2022-12-15T16:43:17.367Z,-6.30
2022-12-15T16:45:47.216Z,-6.30
2022-12-15T16:48:16.297Z,-6.30
2022-12-15T16:50:50.011Z,-6.40
2022-12-15T16:53:23.961Z,-6.40
2022-12-15T16:55:55.505Z,-6.50
2022-12-15T16:58:25.076Z,-6.50
2022-12-15T17:00:53.721Z,-6.60
2022-12-15T17:03:25.715Z,-6.60
2022-12-15T17:05:57.881Z,-6.60
2022-12-15T17:08:28.765Z,-6.60
2022-12-15T17:10:57.120Z,-6.60
2022-12-15T17:13:37.805Z,-6.60
2022-12-15T17:16:13.994Z,-6.60
2022-12-15T17:18:42.929Z,-6.70
2022-12-15T17:21:17.856Z,-6.70
2022-12-15T17:23:48.277Z,-6.70
2022-12-15T17:26:28.601Z,-6.80
2022-12-15T17:29:01.170Z,-6.80
2022-12-15T17:31:35.267Z,-6.90
2022-12-15T17:34:23.416Z,-6.90
2022-12-15T17:36:53.153Z,-6.90
2022-12-15T17:39:23.279Z,-7.00
2022-12-15T17:41:59.842Z,-7.00
2022-12-15T17:44:33.497Z,-7.00
2022-12-15T17:47:03.023Z,-7.00
2022-12-15T17:49:35.477Z,-7.10
2022-12-15T17:52:09.141Z,-7.10
2022-12-15T17:54:37.405Z,-7.10
2022-12-15T17:57:05.511Z,-7.10
2022-12-15T17:59:33.524Z,-7.00
2022-12-15T18:02:01.743Z,-7.20
2022-12-15T18:04:29.950Z,-7.20
2022-12-15T18:07:01.974Z,-7.30
2022-12-15T18:09:32.320Z,-7.30
2022-12-15T18:12:00.355Z,-7.40
2022-12-15T18:14:28.886Z,-7.30
2022-12-15T18:17:08.015Z,-7.30
2022-12-15T18:19:36.060Z,-7.30
2022-12-15T18:22:04.214Z,-7.20
2022-12-15T18:24:34.468Z,-7.30
2022-12-15T18:27:03.325Z,-7.30
2022-12-15T18:29:31.357Z,-7.40
2022-12-15T18:31:59.439Z,-7.40
2022-12-15T18:34:27.864Z,-7.40
2022-12-15T18:36:55.910Z,-7.40
2022-12-15T18:39:24.725Z,-7.40
2022-12-15T18:41:55.358Z,-7.50
2022-12-15T18:44:25.243Z,-7.50
2022-12-15T18:46:55.371Z,-7.50
2022-12-15T18:49:24.061Z,-7.60
2022-12-15T18:51:52.460Z,-7.80
2022-12-15T18:54:23.242Z,-7.70
2022-12-15T18:56:51.883Z,-7.70
2022-12-15T18:59:21.303Z,-7.70
2022-12-15T19:01:50.245Z,-7.70
2022-12-15T19:04:18.415Z,-7.60
2022-12-15T19:06:46.593Z,-7.70
2022-12-15T19:09:17.249Z,-7.80
2022-12-15T19:12:17.482Z,-7.70
2022-12-15T19:14:48.830Z,-7.80
2022-12-15T19:17:36.850Z,-7.80
2022-12-15T19:20:24.737Z,-7.80
2022-12-15T19:22:53.602Z,-7.80
2022-12-15T19:25:26.174Z,-7.90
2022-12-15T19:27:58.541Z,-7.90
2022-12-15T19:30:29.820Z,-7.90
2022-12-15T19:32:58.090Z,-8.00
2022-12-15T19:35:27.244Z,-8.00
2022-12-15T19:37:58.135Z,-8.00
2022-12-15T19:40:30.341Z,-8.00
2022-12-15T19:42:59.207Z,-8.00
2022-12-15T19:45:30.688Z,-8.00
2022-12-15T19:47:59.383Z,-7.80
2022-12-15T19:50:30.189Z,-8.10
2022-12-15T19:53:00.741Z,-8.10
2022-12-15T19:55:33.292Z,-8.10
2022-12-15T19:58:02.024Z,-8.20
2022-12-15T20:00:31.452Z,-8.10
2022-12-15T20:02:59.574Z,-8.20
2022-12-15T20:05:27.976Z,-8.10
2022-12-15T20:07:56.191Z,-8.30
2022-12-15T20:10:32.176Z,-8.30
2022-12-15T20:13:01.285Z,-8.30
2022-12-15T20:15:31.041Z,-8.30
2022-12-15T20:17:59.075Z,-8.30
2022-12-15T20:20:29.762Z,-8.30
2022-12-15T20:23:02.331Z,-8.30
2022-12-15T20:25:33.474Z,-8.40
2022-12-15T20:28:01.993Z,-8.40
2022-12-15T20:30:35.033Z,-8.40
2022-12-15T20:33:05.981Z,-8.40
2022-12-15T20:35:37.449Z,-8.40
2022-12-15T20:38:19.924Z,-8.40
2022-12-15T20:40:48.280Z,-8.30
2022-12-15T20:43:18.443Z,-8.30
2022-12-15T20:45:53.287Z,-8.30
2022-12-15T20:48:26.475Z,-8.30
2022-12-15T20:50:54.613Z,-8.30
2022-12-15T20:53:24.457Z,-8.30
2022-12-15T20:55:54.051Z,-8.30
2022-12-15T20:58:22.484Z,-8.30
2022-12-15T21:00:54.643Z,-8.30
2022-12-15T21:03:25.657Z,-8.30
2022-12-15T21:05:55.777Z,-8.40
2022-12-15T21:08:26.419Z,-8.40
2022-12-15T21:10:57.242Z,-8.40
2022-12-15T21:13:27.274Z,-8.50
2022-12-15T21:15:56.713Z,-8.50
2022-12-15T21:21:18.717Z,-8.60
2022-12-15T21:23:47.350Z,-8.60
2022-12-15T21:26:19.225Z,-8.60
2022-12-15T21:28:48.609Z,-8.60
2022-12-15T21:31:18.763Z,-8.50
2022-12-15T21:33:47.113Z,-8.60
2022-12-15T21:36:16.573Z,-8.50
2022-12-15T21:38:47.519Z,-8.50
2022-12-15T21:41:18.487Z,-8.60
2022-12-15T21:43:46.686Z,-8.50
2022-12-15T21:46:20.597Z,-8.50
2022-12-15T21:49:09.079Z,-8.50
2022-12-15T21:51:38.979Z,-8.50
2022-12-15T21:54:14.602Z,-8.50
2022-12-15T21:56:42.639Z,-8.40
2022-12-15T21:59:13.928Z,-8.60
2022-12-15T22:01:43.765Z,-8.70
2022-12-15T22:04:18.649Z,-8.70
2022-12-15T22:06:50.834Z,-8.70
2022-12-15T22:09:19.632Z,-8.70
2022-12-15T22:11:49.960Z,-8.80
2022-12-15T22:14:25.188Z,-8.80
2022-12-15T22:16:55.026Z,-8.80
2022-12-15T22:19:23.798Z,-8.90
2022-12-15T22:21:52.379Z,-8.80
2022-12-15T22:24:20.739Z,-8.90
2022-12-15T22:26:48.988Z,-9.00
2022-12-15T22:29:19.306Z,-9.00
2022-12-15T22:31:47.971Z,-8.80
2022-12-15T22:34:19.570Z,-9.00
2022-12-15T22:36:47.916Z,-9.00
2022-12-15T22:39:15.961Z,-9.00
2022-12-15T22:41:46.067Z,-9.00
2022-12-15T22:44:18.100Z,-9.10
2022-12-15T22:46:46.424Z,-9.10
2022-12-15T22:49:19.128Z,-9.10
2022-12-15T22:51:47.472Z,-9.10
2022-12-15T22:54:19.068Z,-9.20
2022-12-15T22:56:49.975Z,-9.20
2022-12-15T22:59:22.235Z,-9.20
2022-12-15T23:01:50.419Z,-9.20
2022-12-15T23:04:20.041Z,-9.20
2022-12-15T23:06:48.579Z,-9.20
2022-12-15T23:09:16.748Z,-9.20
2022-12-15T23:11:43.974Z,-9.30
2022-12-15T23:14:13.792Z,-9.30
2022-12-15T23:16:41.195Z,-9.30
2022-12-15T23:19:10.122Z,-9.30
2022-12-15T23:21:39.672Z,-9.20
2022-12-15T23:24:09.309Z,-9.20
2022-12-15T23:26:37.853Z,-9.20
2022-12-15T23:29:05.896Z,-9.20
2022-12-15T23:31:34.192Z,-9.20
2022-12-15T23:34:02.311Z,-9.20
2022-12-15T23:36:30.493Z,-9.30
2022-12-15T23:38:59.876Z,-9.10
2022-12-15T23:41:29.262Z,-9.30
2022-12-15T23:43:57.435Z,-9.20
2022-12-15T23:46:25.570Z,-9.40
2022-12-15T23:48:53.622Z,-9.40
2022-12-15T23:51:23.121Z,-9.40
2022-12-15T23:53:51.169Z,-9.40
2022-12-15T23:56:23.311Z,-9.50
2022-12-15T23:58:56.614Z,-9.50
